Time;durP1;ratioP1;P1;durP2;ratioP2;P2;SDS_P1;SDS_P2;PMS_P1;PMS_P2;Temp;Humidity;BMP_temperature;BMP_pressure;BME280_temperature;BME280_humidity;BME280_pressure;Samples;Min_cycle;Max_cycle;Signal;HPM_P1;HPM_P2
2023/05/04 00:01:10;;;;;;;11.48;8.40;;;;;;;12.77;53.25;99840.72;5024745;28;20037;-74
2023/05/04 00:03:38;;;;;;;10.30;7.35;;;;;;;12.78;53.51;99839.78;5025379;28;20065;-73
2023/05/04 00:06:05;;;;;;;8.73;7.15;;;;;;;12.80;53.17;99837.03;5025826;28;20053;-74
2023/05/04 00:08:31;;;;;;;10.10;7.03;;;;;;;12.80;53.08;99837.88;5024422;28;20038;-74
2023/05/04 00:10:58;;;;;;;7.22;6.15;;;;;;;12.81;52.81;99828.97;5025486;28;20104;-74
2023/05/04 00:13:25;;;;;;;9.68;6.65;;;;;;;12.82;52.86;99835.16;5025463;28;20294;-73
2023/05/04 00:15:51;;;;;;;8.23;5.80;;;;;;;12.82;52.80;99825.34;5025085;28;20049;-73
2023/05/04 00:18:18;;;;;;;10.27;6.68;;;;;;;12.84;52.87;99830.59;5025189;28;20038;-73
2023/05/04 00:20:46;;;;;;;8.95;7.03;;;;;;;12.86;52.39;99825.19;5028858;28;20050;-73
2023/05/04 00:23:13;;;;;;;7.85;6.25;;;;;;;12.85;52.56;99821.66;5029067;28;20057;-73
2023/05/04 00:25:40;;;;;;;7.90;5.93;;;;;;;12.85;52.11;99824.31;5029006;28;20088;-73
2023/05/04 00:28:06;;;;;;;6.90;5.53;;;;;;;12.84;52.11;99815.50;5028718;28;20072;-73
2023/05/04 00:30:33;;;;;;;7.60;6.10;;;;;;;12.83;52.11;99815.56;5028672;28;20034;-74
2023/05/04 00:33:00;;;;;;;8.98;6.32;;;;;;;12.82;52.03;99819.19;5029184;28;20229;-73
2023/05/04 00:35:28;;;;;;;12.00;6.82;;;;;;;12.82;51.99;99819.19;5027641;28;20057;-74
2023/05/04 00:37:56;;;;;;;7.47;6.45;;;;;;;12.81;51.90;99822.78;5027719;28;20052;-74
2023/05/04 00:40:23;;;;;;;8.85;5.78;;;;;;;12.78;52.03;99825.63;5028491;28;20049;-73
2023/05/04 00:42:50;;;;;;;11.75;8.43;;;;;;;12.77;52.03;99815.94;5028695;28;20189;-72
2023/05/04 00:45:17;;;;;;;9.52;6.90;;;;;;;12.74;52.07;99816.09;5028385;28;20250;-72
2023/05/04 00:47:43;;;;;;;10.73;7.25;;;;;;;12.71;51.94;99814.47;5028641;28;20290;-72
2023/05/04 00:50:11;;;;;;;9.73;6.85;;;;;;;12.68;52.29;99812.00;5027444;28;20046;-71
2023/05/04 00:52:40;;;;;;;7.75;6.78;;;;;;;12.64;52.32;99809.59;5028292;28;20044;-72
2023/05/04 00:55:10;;;;;;;10.18;7.03;;;;;;;12.58;52.28;99812.59;5028120;28;20038;-72
2023/05/04 00:57:37;;;;;;;11.60;7.22;;;;;;;12.55;52.43;99810.09;5028189;28;20065;-72
2023/05/04 01:00:05;;;;;;;7.68;6.45;;;;;;;12.54;52.53;99808.38;5028684;28;20060;-72
2023/05/04 01:02:32;;;;;;;8.90;7.55;;;;;;;12.50;52.44;99800.59;5028589;28;20064;-72
2023/05/04 01:04:58;;;;;;;8.23;6.53;;;;;;;12.49;52.59;99806.84;5027194;28;20145;-72
2023/05/04 01:07:32;;;;;;;11.38;5.78;;;;;;;12.45;52.48;99810.63;5027119;28;20056;-74
2023/05/04 01:10:03;;;;;;;7.03;6.00;;;;;;;12.40;52.25;99809.16;5027144;28;20038;-74
2023/05/04 01:12:36;;;;;;;8.10;5.53;;;;;;;12.36;52.65;99804.97;5028137;28;20042;-73
2023/05/04 01:15:03;;;;;;;7.35;6.20;;;;;;;12.33;52.64;99802.47;5027990;28;20042;-74
2023/05/04 01:17:30;;;;;;;9.73;6.95;;;;;;;12.29;52.62;99807.09;5027789;28;20042;-73
2023/05/04 01:19:57;;;;;;;9.63;6.97;;;;;;;12.26;52.72;99801.94;5027677;28;20057;-74
2023/05/04 01:22:25;;;;;;;7.13;6.30;;;;;;;12.22;52.65;99805.72;5027551;28;20062;-73
2023/05/04 01:24:52;;;;;;;8.50;6.63;;;;;;;12.18;52.93;99804.16;5027907;28;20037;-73
2023/05/04 01:27:26;;;;;;;10.20;6.65;;;;;;;12.11;52.86;99810.72;5027827;28;20041;-74
2023/05/04 01:30:00;;;;;;;9.68;7.03;;;;;;;12.06;53.18;99810.13;5027029;28;20054;-73
2023/05/04 01:32:28;;;;;;;10.40;7.23;;;;;;;11.97;53.22;99807.91;5027738;28;20046;-74
2023/05/04 01:34:56;;;;;;;10.60;7.57;;;;;;;11.92;53.52;99800.19;5027445;28;20471;-74
2023/05/04 01:37:22;;;;;;;12.25;6.82;;;;;;;11.92;53.33;99810.81;5026506;28;20041;-73
2023/05/04 01:39:50;;;;;;;10.75;7.95;;;;;;;11.87;53.48;99807.56;5027379;28;20046;-74
2023/05/04 01:42:17;;;;;;;8.00;6.30;;;;;;;11.81;53.66;99822.00;5027877;28;20056;-74
2023/05/04 01:44:44;;;;;;;10.05;6.50;;;;;;;11.77;53.67;99812.50;5027266;28;20092;-73
2023/05/04 01:47:11;;;;;;;10.23;7.38;;;;;;;11.74;53.90;99810.00;5027810;28;20084;-74
2023/05/04 01:49:37;;;;;;;7.72;6.47;;;;;;;11.71;54.00;99804.84;5027750;28;20069;-74
2023/05/04 01:52:06;;;;;;;10.30;7.10;;;;;;;11.70;54.13;99805.78;5027421;28;20050;-73
2023/05/04 01:54:33;;;;;;;9.55;7.18;;;;;;;11.64;53.99;99805.25;5027084;28;20045;-73
2023/05/04 01:57:02;;;;;;;6.95;6.13;;;;;;;11.63;54.18;99795.56;5027498;28;20052;-74
2023/05/04 01:59:29;;;;;;;7.97;7.07;;;;;;;11.61;54.13;99797.44;5027293;28;20080;-74
2023/05/04 02:01:55;;;;;;;9.15;6.75;;;;;;;11.58;53.91;99803.78;5027267;28;20225;-73
2023/05/04 02:04:22;;;;;;;9.73;8.10;;;;;;;11.48;54.02;99798.09;5026879;28;20052;-74
2023/05/04 02:06:49;;;;;;;8.85;6.68;;;;;;;11.50;54.25;99798.00;5026885;28;20365;-75
2023/05/04 02:09:16;;;;;;;8.93;6.93;;;;;;;11.36;54.10;99784.59;5027096;28;20053;-74
2023/05/04 02:11:42;;;;;;;7.20;6.38;;;;;;;11.42;54.18;99810.81;5026199;28;20332;-74
2023/05/04 02:14:10;;;;;;;9.30;6.40;;;;;;;11.37;54.17;99808.41;5026731;28;20206;-74
2023/05/04 02:16:37;;;;;;;7.45;6.60;;;;;;;11.30;54.17;99795.53;5025768;28;20052;-74
2023/05/04 02:19:04;;;;;;;9.65;7.18;;;;;;;11.34;54.32;99802.41;5026788;28;20058;-74
2023/05/04 02:21:31;;;;;;;7.63;6.63;;;;;;;11.32;54.27;99805.13;5026862;28;20055;-75
2023/05/04 02:23:58;;;;;;;9.32;7.18;;;;;;;10.52;54.10;99675.66;5027118;28;20095;-74
2023/05/04 02:26:24;;;;;;;8.85;7.05;;;;;;;11.28;54.14;99808.88;5025719;28;20038;-74
2023/05/04 02:28:51;;;;;;;10.82;7.20;;;;;;;11.26;54.15;99805.44;5026733;28;20108;-74
2023/05/04 02:31:19;;;;;;;9.30;6.28;;;;;;;11.23;54.28;99808.25;5027013;28;20041;-74
2023/05/04 02:33:46;;;;;;;6.65;5.97;;;;;;;11.19;54.16;99807.53;5025194;28;20054;-75
2023/05/04 02:36:13;;;;;;;10.57;7.00;;;;;;;11.18;54.30;99816.44;5026524;28;20092;-74
2023/05/04 02:38:40;;;;;;;7.53;6.25;;;;;;;11.17;54.26;99805.91;5025588;28;20038;-74
2023/05/04 02:41:06;;;;;;;6.60;5.95;;;;;;;11.16;53.96;99805.03;5026007;28;20076;-74
2023/05/04 02:43:33;;;;;;;7.80;5.82;;;;;;;11.14;54.03;99804.25;5026184;28;20049;-75
2023/05/04 02:46:00;;;;;;;7.78;6.55;;;;;;;10.75;53.82;99759.34;5026742;28;20057;-75
2023/05/04 02:48:28;;;;;;;8.73;6.18;;;;;;;11.08;53.95;99809.00;5026414;28;20044;-75
2023/05/04 02:50:55;;;;;;;6.35;5.45;;;;;;;11.08;53.96;99807.22;5026673;28;20049;-74
2023/05/04 02:53:22;;;;;;;7.93;5.85;;;;;;;11.08;54.03;99807.22;5026387;28;20057;-73
2023/05/04 02:55:48;;;;;;;7.43;5.97;;;;;;;10.80;53.79;99759.16;5025075;28;20038;-74
2023/05/04 02:58:15;;;;;;;11.20;6.38;;;;;;;10.89;53.92;99782.56;5025160;28;20077;-74
2023/05/04 03:00:42;;;;;;;10.35;6.53;;;;;;;11.04;53.82;99808.31;5025157;28;20046;-74
2023/05/04 03:03:08;;;;;;;7.70;5.53;;;;;;;11.02;53.77;99807.53;5025048;28;20060;-75
2023/05/04 03:05:37;;;;;;;7.35;5.57;;;;;;;10.98;53.81;99805.97;5025899;28;20050;-75
2023/05/04 03:08:04;;;;;;;7.40;6.60;;;;;;;10.97;53.82;99806.91;5025005;28;20205;-74
2023/05/04 03:10:31;;;;;;;10.13;5.75;;;;;;;10.93;53.73;99800.03;5025815;28;20037;-74
2023/05/04 03:13:02;;;;;;;6.72;5.47;;;;;;;10.91;53.65;99802.75;5024945;28;20045;-75
2023/05/04 03:15:29;;;;;;;6.47;5.32;;;;;;;10.86;53.76;99802.13;5025861;28;20117;-75
2023/05/04 03:17:56;;;;;;;8.73;5.95;;;;;;;10.85;53.70;99789.81;5026228;28;20092;-74
2023/05/04 03:20:22;;;;;;;8.27;5.97;;;;;;;10.83;53.67;99796.13;5025564;28;20077;-74
2023/05/04 03:22:51;;;;;;;8.73;5.43;;;;;;;10.83;53.62;99796.97;5025664;28;20050;-75
2023/05/04 03:25:18;;;;;;;8.02;5.22;;;;;;;10.83;53.73;99796.97;5026195;28;20045;-74
2023/05/04 03:27:44;;;;;;;7.40;5.80;;;;;;;10.81;53.56;99790.88;5024779;28;20034;-75
2023/05/04 03:30:13;;;;;;;5.93;5.15;;;;;;;10.80;53.37;99797.13;5025545;28;20060;-74
2023/05/04 03:32:39;;;;;;;7.97;6.13;;;;;;;10.79;53.43;99797.19;5024739;28;20038;-74
2023/05/04 03:35:08;;;;;;;8.57;5.95;;;;;;;10.76;53.53;99800.81;5024741;28;20044;-74
2023/05/04 03:37:34;;;;;;;9.73;6.53;;;;;;;10.76;53.34;99794.66;5025514;28;20041;-75
2023/05/04 03:40:03;;;;;;;8.00;5.57;;;;;;;10.75;53.27;99792.94;5025496;28;20136;-74
2023/05/04 03:42:29;;;;;;;9.35;5.85;;;;;;;10.73;53.27;99803.63;5026045;28;20105;-74
2023/05/04 03:44:56;;;;;;;7.68;5.55;;;;;;;10.72;53.51;99795.75;5025969;28;20054;-74
2023/05/04 03:47:23;;;;;;;7.40;5.47;;;;;;;10.71;53.45;99805.50;5025458;28;20042;-75
2023/05/04 03:49:50;;;;;;;10.05;5.85;;;;;;;10.68;53.58;99803.00;5025959;28;20052;-75
2023/05/04 03:52:17;;;;;;;10.20;6.68;;;;;;;10.68;53.54;99804.78;5024621;28;20095;-74
2023/05/04 03:54:43;;;;;;;6.90;5.53;;;;;;;10.51;53.68;99782.59;5028367;28;20045;-74
2023/05/04 03:57:12;;;;;;;7.70;5.82;;;;;;;10.65;53.76;99804.94;5029698;28;20042;-75
2023/05/04 03:59:38;;;;;;;12.30;7.07;;;;;;;10.64;53.57;99809.38;5029506;28;20073;-74
2023/05/04 04:02:05;;;;;;;10.18;5.80;;;;;;;10.39;53.63;99766.44;5028413;28;20038;-73
2023/05/04 04:04:32;;;;;;;12.30;6.13;;;;;;;10.62;53.62;99810.38;5028343;28;20038;-74
2023/05/04 04:06:58;;;;;;;7.50;6.03;;;;;;;10.63;53.76;99807.66;5029418;28;20282;-74
2023/05/04 04:09:25;;;;;;;8.30;5.80;;;;;;;9.66;53.85;99648.97;5029385;28;20108;-74
2023/05/04 04:11:52;;;;;;;7.85;5.78;;;;;;;10.63;53.78;99810.31;5029315;28;20179;-74
2023/05/04 04:14:20;;;;;;;7.82;5.63;;;;;;;10.63;53.68;99812.09;5028973;28;20045;-75
2023/05/04 04:16:47;;;;;;;7.50;5.60;;;;;;;10.64;53.67;99817.31;5028038;28;20096;-74
2023/05/04 04:19:13;;;;;;;9.02;5.60;;;;;;;10.40;53.79;99776.97;5028754;28;20360;-74
2023/05/04 04:21:40;;;;;;;8.32;5.55;;;;;;;10.66;53.77;99812.81;5028992;28;20062;-74
2023/05/04 04:24:07;;;;;;;8.35;6.10;;;;;;;10.66;53.92;99815.47;5029067;28;20301;-74
2023/05/04 04:26:34;;;;;;;9.07;6.13;;;;;;;10.66;53.94;99814.59;5027961;28;20084;-74
2023/05/04 04:29:00;;;;;;;8.27;6.32;;;;;;;10.64;54.02;99816.47;5027913;28;20041;-75
2023/05/04 04:31:29;;;;;;;9.48;6.20;;;;;;;10.64;54.18;99809.38;5028949;28;20046;-74
2023/05/04 04:33:56;;;;;;;9.88;6.20;;;;;;;10.65;54.12;99812.88;5028894;28;20293;-75
2023/05/04 04:36:23;;;;;;;8.07;6.75;;;;;;;10.64;54.30;99812.03;5028939;28;20088;-75
2023/05/04 04:38:51;;;;;;;6.60;5.88;;;;;;;10.63;54.27;99815.59;5028556;28;20103;-74
2023/05/04 04:41:18;;;;;;;6.55;5.43;;;;;;;10.61;54.24;99809.53;5028755;28;20189;-74
2023/05/04 04:43:45;;;;;;;7.18;5.82;;;;;;;10.69;54.21;99809.16;5028938;28;20053;-75
2023/05/04 04:46:11;;;;;;;9.52;5.25;;;;;;;10.69;54.24;99810.00;5028735;28;20194;-74
2023/05/04 04:48:40;;;;;;;7.80;5.97;;;;;;;10.66;54.15;99819.91;5028362;28;20046;-74
2023/05/04 04:51:10;;;;;;;8.18;6.50;;;;;;;10.66;54.24;99817.25;5028107;28;20052;-73
2023/05/04 04:53:36;;;;;;;7.47;5.90;;;;;;;10.66;54.22;99815.47;5027297;28;20092;-74
2023/05/04 04:56:03;;;;;;;7.38;6.40;;;;;;;10.69;54.14;99809.16;5028394;28;20034;-74
2023/05/04 04:58:31;;;;;;;9.52;6.78;;;;;;;10.57;53.97;99797.34;5028129;28;20045;-74
2023/05/04 05:00:58;;;;;;;10.27;5.93;;;;;;;10.74;53.95;99823.03;5028051;28;20045;-74
2023/05/04 05:03:24;;;;;;;11.68;6.13;;;;;;;10.76;53.96;99816.72;5028197;28;20069;-74
2023/05/04 05:05:54;;;;;;;9.07;5.53;;;;;;;10.78;53.78;99825.50;5027853;28;20065;-74
2023/05/04 05:08:21;;;;;;;7.68;5.30;;;;;;;10.77;53.82;99826.44;5027922;28;20038;-74
2023/05/04 05:10:47;;;;;;;6.22;5.57;;;;;;;10.80;53.69;99825.44;5027356;28;20041;-73
2023/05/04 05:13:14;;;;;;;7.22;5.40;;;;;;;10.83;53.68;99828.78;5028436;28;20053;-74
2023/05/04 05:15:41;;;;;;;6.78;5.78;;;;;;;10.85;53.47;99828.72;5028051;28;20324;-74
2023/05/04 05:18:08;;;;;;;7.20;6.10;;;;;;;10.87;53.50;99827.72;5026575;28;20085;-74
2023/05/04 05:20:34;;;;;;;9.70;5.90;;;;;;;10.89;53.57;99825.84;5027947;28;20060;-74
2023/05/04 05:23:03;;;;;;;9.77;6.40;;;;;;;10.92;53.26;99832.78;5028196;28;20186;-74
2023/05/04 05:25:31;;;;;;;8.90;6.60;;;;;;;10.17;53.24;99701.22;5028233;28;20056;-75
2023/05/04 05:27:57;;;;;;;7.75;6.45;;;;;;;10.98;53.17;99834.28;5027586;28;20178;-75
2023/05/04 05:30:27;;;;;;;11.20;6.43;;;;;;;10.82;53.41;99811.16;5026687;28;20046;-74
2023/05/04 05:32:53;;;;;;;7.93;5.97;;;;;;;10.87;53.40;99813.59;5026502;28;20046;-75
2023/05/04 05:35:20;;;;;;;10.65;6.57;;;;;;;11.03;53.06;99840.22;5026415;28;20060;-75
2023/05/04 05:37:47;;;;;;;8.55;5.65;;;;;;;10.80;53.04;99799.78;5027074;28;20057;-74
2023/05/04 05:40:16;;;;;;;19.08;6.10;;;;;;;11.04;52.98;99837.50;5027279;28;20313;-74
2023/05/04 05:42:43;;;;;;;6.82;5.45;;;;;;;11.07;52.92;99832.03;5027895;28;20315;-74
2023/05/04 05:45:11;;;;;;;9.30;6.43;;;;;;;11.09;52.91;99838.13;5026362;28;20038;-75
2023/05/04 05:47:38;;;;;;;8.45;5.85;;;;;;;11.12;52.97;99840.63;5027503;28;20049;-75
2023/05/04 05:50:05;;;;;;;6.57;5.68;;;;;;;11.14;52.70;99836.09;5027427;28;20054;-75
2023/05/04 05:52:32;;;;;;;6.93;5.60;;;;;;;11.16;52.89;99839.53;5027696;28;20089;-75
2023/05/04 05:54:59;;;;;;;7.40;6.03;;;;;;;11.18;52.81;99834.16;5027067;28;20034;-75
2023/05/04 05:57:27;;;;;;;6.50;5.60;;;;;;;11.20;52.65;99832.28;5027553;28;20050;-75
2023/05/04 05:59:54;;;;;;;7.95;6.72;;;;;;;11.23;52.69;99829.47;5027540;28;20052;-75
2023/05/04 06:02:20;;;;;;;8.00;5.95;;;;;;;11.26;52.74;99837.28;5025978;28;20076;-75
2023/05/04 06:04:47;;;;;;;9.02;6.07;;;;;;;11.33;52.65;99832.50;5026093;28;20046;-75
2023/05/04 06:07:14;;;;;;;8.20;6.40;;;;;;;11.32;52.46;99829.00;5027268;28;20100;-75
2023/05/04 06:09:40;;;;;;;8.75;6.40;;;;;;;11.37;52.34;99826.97;5027079;28;20248;-75
2023/05/04 06:12:12;;;;;;;7.85;6.35;;;;;;;11.40;52.42;99829.47;5027308;28;20050;-75
2023/05/04 06:14:40;;;;;;;9.95;7.28;;;;;;;11.37;52.46;99819.00;5027138;28;20072;-75
2023/05/04 06:17:07;;;;;;;10.00;6.90;;;;;;;11.52;52.06;99825.34;5025261;28;20080;-75
2023/05/04 06:19:34;;;;;;;8.13;6.03;;;;;;;11.09;52.30;99749.72;5026373;28;20111;-75
2023/05/04 06:22:01;;;;;;;7.85;6.32;;;;;;;11.65;52.18;99822.91;5026789;28;20328;-75
2023/05/04 06:24:28;;;;;;;9.50;6.05;;;;;;;11.73;51.93;99826.88;5026637;28;20080;-75
2023/05/04 06:26:55;;;;;;;6.63;5.65;;;;;;;11.82;52.01;99829.03;5026490;28;20033;-75
2023/05/04 06:29:22;;;;;;;6.22;5.28;;;;;;;11.93;51.71;99822.31;5026682;28;20100;-75
2023/05/04 06:31:50;;;;;;;9.95;6.45;;;;;;;12.07;51.64;99825.13;5026913;28;20050;-75
2023/05/04 06:34:17;;;;;;;7.13;6.10;;;;;;;12.21;51.35;99811.13;5025464;28;20088;-75
2023/05/04 06:36:44;;;;;;;8.77;5.85;;;;;;;12.40;51.14;99819.78;5026088;28;20221;-75
2023/05/04 06:39:11;;;;;;;8.70;6.45;;;;;;;12.32;51.00;99768.84;5025419;28;20041;-75
2023/05/04 06:41:38;;;;;;;8.10;5.60;;;;;;;12.85;50.31;99819.00;5026294;28;20149;-76
2023/05/04 06:44:05;;;;;;;6.32;5.50;;;;;;;12.49;49.89;99716.47;5025139;28;20058;-75
2023/05/04 06:46:35;;;;;;;11.38;6.57;;;;;;;13.38;49.22;99815.03;5026146;28;20104;-75
2023/05/04 06:49:04;;;;;;;7.80;5.88;;;;;;;13.70;48.81;99819.31;5026383;28;20046;-76
2023/05/04 06:51:31;;;;;;;7.55;5.28;;;;;;;13.95;48.19;99807.16;5025567;28;20166;-75
2023/05/04 06:53:59;;;;;;;8.02;5.85;;;;;;;14.06;47.49;99759.38;5026190;28;20042;-75
2023/05/04 06:56:25;;;;;;;6.93;5.63;;;;;;;14.76;47.06;99800.25;5026217;28;20228;-75
2023/05/04 06:58:52;;;;;;;7.47;6.35;;;;;;;15.10;46.26;99806.03;5025660;28;20057;-74
2023/05/04 07:01:19;;;;;;;7.55;5.93;;;;;;;15.31;45.66;99801.91;5025075;28;20042;-75
2023/05/04 07:03:46;;;;;;;7.25;5.45;;;;;;;15.50;45.08;99799.69;5026006;28;20041;-75
2023/05/04 07:06:14;;;;;;;7.18;4.95;;;;;;;15.76;44.86;99791.75;5024982;28;20045;-75
2023/05/04 07:08:40;;;;;;;6.88;5.15;;;;;;;15.89;44.72;99765.88;5025831;28;20088;-76
2023/05/04 07:11:09;;;;;;;8.32;5.60;;;;;;;16.27;44.34;99793.41;5026066;28;20298;-75
2023/05/04 07:13:36;;;;;;;8.55;5.65;;;;;;;16.47;43.61;99789.28;5025640;28;20064;-75
2023/05/04 07:16:07;;;;;;;9.27;5.28;;;;;;;16.70;43.35;99798.34;5025845;28;20080;-76
2023/05/04 07:18:34;;;;;;;7.75;5.32;;;;;;;16.93;43.04;99793.97;5025640;28;20205;-76
2023/05/04 07:21:00;;;;;;;7.40;5.68;;;;;;;17.12;43.09;99802.34;5026133;28;20053;-76
2023/05/04 07:23:29;;;;;;;7.65;5.68;;;;;;;16.66;42.63;99679.97;5024850;28;20075;-76
2023/05/04 07:25:56;;;;;;;7.57;5.75;;;;;;;17.53;42.22;99787.66;5025672;28;20100;-76
2023/05/04 07:28:22;;;;;;;6.43;5.03;;;;;;;17.58;41.93;99770.25;5025296;28;20282;-75
2023/05/04 07:30:50;;;;;;;8.10;5.35;;;;;;;15.94;41.87;99469.69;5025727;28;20037;-76
2023/05/04 07:33:16;;;;;;;7.22;5.20;;;;;;;18.12;41.84;99796.41;5025961;28;20319;-76
2023/05/04 07:35:43;;;;;;;5.85;5.03;;;;;;;18.31;41.12;99797.63;5024303;28;20046;-75
2023/05/04 07:38:10;;;;;;;7.18;4.88;;;;;;;18.41;41.08;99796.75;5025196;28;20037;-76
2023/05/04 07:40:38;;;;;;;5.50;4.60;;;;;;;18.52;40.72;99793.25;5025775;28;20188;-76
2023/05/04 07:43:05;;;;;;;7.40;5.10;;;;;;;18.66;40.85;99792.97;5024575;28;20096;-76
2023/05/04 07:45:31;;;;;;;5.97;4.30;;;;;;;18.85;40.42;99795.00;5024623;28;20088;-76
2023/05/04 07:47:58;;;;;;;6.45;4.28;;;;;;;19.00;40.21;99780.31;5025602;28;20300;-76
2023/05/04 07:50:25;;;;;;;5.60;4.20;;;;;;;19.14;40.06;99784.53;5025592;28;20054;-76
2023/05/04 07:52:51;;;;;;;6.93;4.43;;;;;;;19.22;40.02;99787.41;5024534;28;20233;-76
2023/05/04 07:55:18;;;;;;;7.47;4.88;;;;;;;19.30;40.06;99781.41;5025361;28;20045;-76
2023/05/04 07:57:47;;;;;;;4.78;4.22;;;;;;;19.42;39.17;99775.00;5025224;28;20209;-76
2023/05/04 08:00:14;;;;;;;7.47;4.53;;;;;;;19.45;39.04;99770.22;5024335;28;20089;-76
2023/05/04 08:02:41;;;;;;;7.43;4.82;;;;;;;19.59;38.83;99774.41;5025489;28;20088;-76
2023/05/04 08:05:09;;;;;;;7.55;5.82;;;;;;;19.59;37.92;99754.75;5024321;28;20042;-76
2023/05/04 08:07:36;;;;;;;7.90;4.63;;;;;;;19.62;37.95;99765.25;5025256;28;20038;-76
2023/05/04 08:10:03;;;;;;;5.55;3.88;;;;;;;19.72;37.89;99766.16;5024775;28;20042;-76
2023/05/04 08:12:30;;;;;;;6.55;4.20;;;;;;;19.82;37.61;99762.56;5025150;28;20054;-76
2023/05/04 08:14:59;;;;;;;5.93;3.88;;;;;;;19.93;37.39;99767.00;5025527;28;20033;-76
2023/05/04 08:17:26;;;;;;;12.95;4.32;;;;;;;20.02;37.40;99771.56;5024140;28;20191;-76
2023/05/04 08:19:53;;;;;;;7.55;3.72;;;;;;;20.09;37.55;99756.59;5023762;28;20070;-76
2023/05/04 08:22:20;;;;;;;5.30;4.00;;;;;;;20.19;37.39;99762.88;5024167;28;20042;-76
2023/05/04 08:24:47;;;;;;;7.63;4.93;;;;;;;20.27;37.32;99770.28;5025582;28;20065;-76
2023/05/04 08:27:14;;;;;;;6.47;4.35;;;;;;;20.36;36.90;99755.16;5025033;28;20104;-76
2023/05/04 08:29:41;;;;;;;5.97;4.13;;;;;;;20.46;36.96;99769.50;5024375;28;20038;-76
2023/05/04 08:32:09;;;;;;;8.15;4.82;;;;;;;20.47;36.91;99752.38;5023961;28;20096;-76
2023/05/04 08:34:37;;;;;;;6.35;4.78;;;;;;;20.67;36.45;99767.56;5024748;28;20054;-76
2023/05/04 08:37:04;;;;;;;5.95;4.65;;;;;;;20.61;36.26;99770.81;5023900;28;20037;-76
2023/05/04 08:39:31;;;;;;;7.95;5.05;;;;;;;20.61;36.71;99767.28;5026410;28;20065;-76
2023/05/04 08:41:57;;;;;;;7.05;4.63;;;;;;;20.54;36.57;99739.19;5028808;28;20053;-76
2023/05/04 08:44:24;;;;;;;5.50;4.20;;;;;;;20.72;36.28;99751.84;5028403;28;20050;-76
2023/05/04 08:46:52;;;;;;;6.88;5.00;;;;;;;20.78;36.00;99753.13;5028525;28;20301;-76
2023/05/04 08:49:21;;;;;;;6.35;5.05;;;;;;;20.81;35.87;99755.53;5027541;28;20050;-75
2023/05/04 08:51:49;;;;;;;9.20;5.55;;;;;;;20.33;36.24;99663.94;5028497;28;20042;-76
2023/05/04 08:54:16;;;;;;;7.55;4.97;;;;;;;20.99;36.29;99755.69;5028152;28;20037;-76
2023/05/04 08:56:45;;;;;;;15.18;5.25;;;;;;;21.06;35.96;99749.63;5028124;28;20301;-76
2023/05/04 08:59:19;;;;;;;8.32;5.15;;;;;;;21.10;33.85;99759.13;5028023;28;20044;-76
2023/05/04 09:01:47;;;;;;;;;;;;;;;21.08;32.79;99754.88;5029276;28;20054;-76
2023/05/04 09:04:14;;;;;;;5.57;4.05;;;;;;;21.01;36.15;99753.72;5027044;28;19960;-75
2023/05/04 09:06:42;;;;;;;8.15;4.95;;;;;;;21.07;35.46;99743.25;5027311;28;20171;-76
2023/05/04 09:09:10;;;;;;;7.03;4.53;;;;;;;21.08;35.68;99746.78;5026992;28;20112;-76
2023/05/04 09:11:38;;;;;;;6.28;4.53;;;;;;;21.13;35.74;99741.84;5028138;28;20100;-76
2023/05/04 09:14:05;;;;;;;6.57;4.65;;;;;;;21.19;35.65;99751.19;5028076;28;20037;-76
2023/05/04 09:16:35;;;;;;;7.72;5.20;;;;;;;21.17;34.20;99743.25;5028005;28;20201;-76
2023/05/04 09:19:03;;;;;;;6.28;4.30;;;;;;;20.81;35.15;99683.66;5026934;28;20112;-76
2023/05/04 09:21:30;;;;;;;4.50;3.80;;;;;;;21.20;34.85;99745.66;5027512;28;20312;-76
2023/05/04 09:23:59;;;;;;;5.30;4.45;;;;;;;20.92;34.30;99695.28;5026790;28;20221;-76
2023/05/04 09:26:30;;;;;;;5.03;3.28;;;;;;;21.23;33.05;99739.97;5026598;28;20248;-76
2023/05/04 09:28:57;;;;;;;6.75;4.30;;;;;;;21.18;34.12;99725.22;5027537;28;20076;-76
2023/05/04 09:31:25;;;;;;;6.70;4.30;;;;;;;21.33;34.24;99735.44;5027371;28;20034;-75
2023/05/04 09:33:52;;;;;;;5.43;3.72;;;;;;;21.41;34.50;99734.72;5027742;28;20069;-75
2023/05/04 09:36:19;;;;;;;5.13;3.78;;;;;;;21.50;33.89;99730.28;5027638;28;20053;-77
2023/05/04 09:38:46;;;;;;;5.13;3.65;;;;;;;21.35;34.01;99711.03;5026633;28;20092;-76
2023/05/04 09:41:15;;;;;;;5.75;3.78;;;;;;;21.52;34.01;99725.59;5027923;28;20038;-76
2023/05/04 09:43:43;;;;;;;6.05;4.45;;;;;;;21.53;34.10;99722.75;5027163;28;20057;-76
2023/05/04 09:46:20;;;;;;;5.55;3.58;;;;;;;21.57;31.75;99717.94;5026324;28;20128;-76
2023/05/04 09:48:52;;;;;;;9.40;4.05;;;;;;;21.51;32.46;99713.97;5026291;28;20144;-76
2023/05/04 09:51:21;;;;;;;6.20;3.90;;;;;;;21.49;34.02;99713.25;5026473;28;20037;-76
2023/05/04 09:53:49;;;;;;;5.97;4.10;;;;;;;21.51;33.82;99713.13;5026223;28;20073;-75
2023/05/04 09:56:32;;;;;;;5.40;4.28;;;;;;;21.48;32.60;99713.41;5027021;28;20046;-76
2023/05/04 09:58:59;;;;;;;8.32;4.35;;;;;;;21.17;33.78;99642.69;5027177;28;20308;-76
2023/05/04 10:01:28;;;;;;;6.03;4.57;;;;;;;21.59;33.52;99707.84;5027487;28;20042;-76
2023/05/04 10:03:55;;;;;;;7.93;4.63;;;;;;;21.65;33.55;99707.25;5026905;28;20065;-76
2023/05/04 10:06:23;;;;;;;8.20;5.15;;;;;;;21.66;33.46;99707.13;5026864;28;20054;-76
2023/05/04 10:08:50;;;;;;;5.18;3.90;;;;;;;21.65;33.22;99696.47;5026583;28;20097;-76
2023/05/04 10:11:20;;;;;;;6.75;4.18;;;;;;;21.50;33.24;99669.13;5026977;28;20048;-75
2023/05/04 10:13:47;;;;;;;6.18;4.18;;;;;;;21.61;33.68;99682.44;5026417;28;20348;-76
2023/05/04 10:16:27;;;;;;;6.30;3.85;;;;;;;21.44;31.78;99657.06;5027112;28;20037;-76
2023/05/04 10:19:11;;;;;;;6.07;4.22;;;;;;;21.36;31.84;99686.63;5025218;28;20049;-76
2023/05/04 10:21:52;;;;;;;7.35;4.90;;;;;;;21.42;32.90;99683.34;5025612;28;20213;-76
2023/05/04 10:24:45;;;;;;;7.13;5.07;;;;;;;21.48;32.75;99679.22;5026961;28;20042;-75
2023/05/04 10:27:15;;;;;;;6.03;4.88;;;;;;;21.56;33.42;99673.09;5026293;28;20050;-76
2023/05/04 10:29:47;;;;;;;5.15;3.55;;;;;;;21.53;33.40;99670.69;5025524;28;20042;-75
2023/05/04 10:32:18;;;;;;;6.55;4.32;;;;;;;21.54;32.44;99650.81;5025264;28;20049;-75
2023/05/04 10:34:45;;;;;;;8.27;4.03;;;;;;;21.60;33.63;99661.84;5026741;28;20046;-76
2023/05/04 10:37:17;;;;;;;5.75;4.38;;;;;;;21.64;32.39;99659.72;5025325;28;20101;-75
2023/05/04 10:39:51;;;;;;;6.28;4.22;;;;;;;21.72;32.02;99660.66;5025921;28;20038;-75
2023/05/04 10:42:20;;;;;;;6.57;4.13;;;;;;;21.69;32.93;99660.13;5026095;28;20050;-75
2023/05/04 10:44:51;;;;;;;5.70;3.70;;;;;;;21.68;32.35;99658.41;5025203;28;20063;-76
2023/05/04 10:47:28;;;;;;;7.22;4.25;;;;;;;21.69;31.91;99657.41;5025939;28;20089;-76
2023/05/04 10:50:01;;;;;;;6.00;4.38;;;;;;;21.67;32.51;99654.03;5025714;28;20117;-76
2023/05/04 10:52:28;;;;;;;7.25;4.60;;;;;;;21.73;33.17;99659.66;5026414;28;20055;-75
2023/05/04 10:54:59;;;;;;;5.60;4.55;;;;;;;21.76;32.40;99651.28;5025698;28;20125;-75
2023/05/04 10:57:29;;;;;;;7.60;4.30;;;;;;;21.80;32.64;99656.41;5025890;28;20042;-76
2023/05/04 10:59:57;;;;;;;8.27;5.10;;;;;;;21.69;32.85;99630.44;5026048;28;20045;-76
2023/05/04 11:02:24;;;;;;;5.63;4.38;;;;;;;21.78;32.59;99651.97;5024699;28;20307;-76
2023/05/04 11:05:02;;;;;;;8.70;4.97;;;;;;;21.54;30.94;99640.88;5025499;28;20037;-73
2023/05/04 11:07:35;;;;;;;6.78;3.88;;;;;;;21.40;32.47;99631.41;5026054;28;20046;-73
2023/05/04 11:10:03;;;;;;;4.72;3.30;;;;;;;21.31;32.88;99636.81;5025564;28;20048;-72
2023/05/04 11:12:31;;;;;;;5.40;3.65;;;;;;;21.12;32.34;99619.72;5025866;28;20085;-71
2023/05/04 11:15:06;;;;;;;6.43;4.45;;;;;;;21.19;31.13;99636.16;5025871;28;20045;-74
2023/05/04 11:17:33;;;;;;;5.47;3.80;;;;;;;21.24;32.66;99631.16;5024791;28;20092;-74
2023/05/04 11:20:00;;;;;;;4.30;3.60;;;;;;;21.18;32.86;99630.91;5025217;28;20321;-74
2023/05/04 11:22:27;;;;;;;4.90;3.78;;;;;;;21.14;32.89;99628.50;5025134;28;20213;-74
2023/05/04 11:24:54;;;;;;;4.85;3.38;;;;;;;21.23;33.05;99624.09;5025398;28;20099;-74
2023/05/04 11:27:23;;;;;;;8.25;3.70;;;;;;;21.30;32.83;99621.66;5025451;28;20316;-74
2023/05/04 11:29:55;;;;;;;5.90;4.47;;;;;;;21.36;31.69;99615.66;5025656;28;20050;-74
2023/05/04 11:32:23;;;;;;;6.70;3.28;;;;;;;21.37;32.36;99615.53;5025992;28;20087;-74
2023/05/04 11:34:49;;;;;;;5.35;3.75;;;;;;;21.21;31.90;99600.97;5025345;28;20053;-74